Flight Track Log - Related Links

Times and Time Zones

All times are in EDT time to prevent confusion due to time zone crossing. See the UAL1024 flight status page for this flight to view local times or setup timezone preferences in your user account.

Time Position Orientation Groundspeed Altitude Reporting Facility
EDT Latitude Longitude Course Direction KTS MPH feet Rate Location/Type
09:17PM 40.9085 -74.3937 313° West 280 322 9,800  Level FlightAware ADS-B (KWWD)
09:17PM 40.9260 -74.4173 315° West 296 341 9,900 146 Climbing FlightAware ADS-B (KWWD)
09:17PM 40.9484 -74.4470 315° West 323 372 9,900 556 Level FlightAware ADS-B (KWWD)
09:18PM 40.9840 -74.4934 315° West 344 396 10,400 1,683 Climbing FlightAware ADS-B (KWWD)
09:19PM 41.0413 -74.5682 315° West 345 397 12,200 2,100 Climbing FlightAware ADS-B (KWWD)
09:19PM 41.0770 -74.6151 315° West 366 421 13,200 2,149 Climbing FlightAware ADS-B (KWWD)
09:20PM 41.1215 -74.6751 314° West 371 427 14,600 2,419 Climbing FlightAware ADS-B (KWWD)
09:20PM 41.1476 -74.7201 302° West 373 429 15,700 1,737 Climbing FlightAware ADS-B (KWWD)
09:21PM 41.1684 -74.7678 300° West 370 426 16,800 2,000 Climbing FlightAware ADS-B (KPHL)
09:22PM 41.2420 -74.9380 300° West 381 438 19,300 2,171 Climbing FlightAware ADS-B (KWWD)
09:23PM 41.2848 -75.0354 300° West 390 449 20,600 1,443 Climbing FlightAware ADS-B (KWWD)
09:23PM 41.3126 -75.1006 300° West 395 455 21,200 909 Climbing FlightAware ADS-B (KWWD)
09:24PM 41.3484 -75.1846 300° West 409 471 22,100 1,260 Climbing FlightAware ADS-B (KPHL)
09:25PM 41.4059 -75.3190 300° West 419 482 23,300 1,750 Climbing FlightAware ADS-B (KWWD)
09:26PM 41.4452 -75.4110 300° West 423 487 24,200 1,333 Climbing FlightAware ADS-B (KWWD)
09:26PM 41.4753 -75.4842 295° West 425 489 24,900 700 Climbing FlightAware ADS-B (KWWD)
09:27PM 41.4760 -75.4850 297° West 428 493 24,900 1,161 Level FlightAware ADS-B
09:27PM 41.4981 -75.5606 290° West 430 495 25,500 1,130 Climbing FlightAware ADS-B (KWWD)
09:28PM 41.5260 -75.6570 291° West 438 504 26,200 1,043 Climbing FlightAware ADS-B
09:28PM 41.5477 -75.7335 290° West 437 503 26,700 1,814 Climbing FlightAware ADS-B (KWWD)
09:28PM 41.5766 -75.8351 290° West 439 505 27,500 1,352 Climbing FlightAware ADS-B (KWWD)
09:29PM 41.5989 -75.9137 290° West 433 498 28,300 1,478 Climbing FlightAware ADS-B (KWWD)
09:30PM 41.6255 -76.0077 290° West 430 495 29,200 955 Climbing FlightAware ADS-B (KWWD)
09:30PM 41.6420 -76.0660 291° West 432 497 29,700 882 Climbing FlightAware ADS-B
09:31PM 41.6780 -76.1930 291° West 428 493 30,700 1,186 Climbing FlightAware ADS-B
09:32PM 41.7020 -76.2790 291° West 424 488 31,400 1,114 Climbing FlightAware ADS-B
09:32PM 41.7260 -76.3660 291° West 418 481 32,000 500 Climbing FlightAware ADS-B
09:33PM 41.7500 -76.4520 291° West 416 479 32,000  Level FlightAware ADS-B
09:34PM 41.7723 -76.5318 291° West 415 478 32,000  Level FlightAware ADS-B (CYYZ)
09:34PM 41.7740 -76.5390 291° West 418 481 32,000  Level FlightAware ADS-B
09:34PM 41.7980 -76.6260 291° West 419 482 32,000  Level FlightAware ADS-B
09:34PM 41.8014 -76.6370 291° West 417 480 32,000  Level FlightAware ADS-B (CYYZ)
09:35PM 41.8190 -76.6990 291° West 421 484 32,000  Level FlightAware ADS-B
09:35PM 41.8211 -76.7085 290° West 420 483 32,000  Level FlightAware ADS-B (EPKK / KRK)
09:35PM 41.8321 -76.7482 291° West 420 483 32,000  Level FlightAware ADS-B (CYYZ)
09:35PM 41.8420 -76.7860 291° West 422 486 32,000  Level FlightAware ADS-B
09:35PM 41.8341 -76.7556 290° West 421 484 32,000  Level FlightAware ADS-B (EPKK / KRK)
09:36PM 41.8534 -76.8262 291° West 420 483 32,000  Level FlightAware ADS-B (CYYZ)
09:36PM 41.8630 -76.8600 291° West 422 486 32,000  Level FlightAware ADS-B
09:36PM 41.8341 -76.7556 290° West 420 483 32,000  Level FlightAware ADS-B (EPKK / KRK)
09:36PM 41.8832 -76.9352 291° West 420 483 32,000  Level FlightAware ADS-B (CYYZ)
09:36PM 41.8870 -76.9490 291° West 421 484 32,000  Level FlightAware ADS-B
09:37PM 41.9110 -77.0360 291° West 421 484 32,000  Level FlightAware ADS-B
09:37PM 41.9136 -77.0473 290° West 421 484 32,000  Level FlightAware ADS-B (CYYZ)
09:38PM 41.9300 -77.1080 290° West 422 486 32,000  Level FlightAware ADS-B
09:38PM 41.9382 -77.1379 290° West 421 484 32,000  Level FlightAware ADS-B (CYYZ)
09:38PM 41.9500 -77.1830 290° West 421 484 32,000  Level FlightAware ADS-B
09:38PM 41.9618 -77.2258 290° West 419 482 32,000  Level FlightAware ADS-B (CYYZ)
09:39PM 41.9700 -77.2570 290° West 421 484 32,000  Level FlightAware ADS-B
09:39PM 41.9900 -77.3300 290° West 421 484 32,000  Level FlightAware ADS-B
09:39PM 41.9935 -77.3446 290° West 421 484 32,000  Level FlightAware ADS-B (CYYZ)
09:40PM 42.0133 -77.4184 290° West 421 484 32,000  Level FlightAware ADS-B (CYYZ)
09:40PM 42.0380 -77.5070 291° West 424 488 32,000  Level FlightAware ADS-B
09:40PM 42.0412 -77.5207 291° West 422 486 32,000  Level FlightAware ADS-B (CYYZ)
09:41PM 42.0580 -77.5810 291° West 424 488 32,000  Level FlightAware ADS-B
09:41PM 42.0547 -77.5703 290° West 424 488 32,000  Level FlightAware ADS-B (EPLB / LUZ)
09:41PM 42.0740 -77.6412 290° West 424 488 32,000  Level FlightAware ADS-B (CYYZ)
09:42PM 42.0940 -77.7150 291° West 426 490 32,000  Level FlightAware ADS-B
09:42PM 42.0910 -77.7042 290° West 425 489 32,000  Level FlightAware ADS-B (CYYZ)
09:42PM 42.1140 -77.7880 290° West 425 489 32,000  Level FlightAware ADS-B
09:42PM 42.1201 -77.8126 290° West 424 488 32,000  Level FlightAware ADS-B (EPLB / LUZ)
09:43PM 42.1348 -77.8671 290° West 424 488 32,000  Level FlightAware ADS-B (CYYZ)
09:43PM 42.1540 -77.9380 290° West 425 489 32,000  Level FlightAware ADS-B
09:43PM 42.1646 -77.9782 290° West 424 488 32,000  Level FlightAware ADS-B (CYYZ)
09:44PM 42.1780 -78.0280 290° West 427 491 32,000  Level FlightAware ADS-B
09:44PM 42.1845 -78.0529 290° West 426 490 32,000  Level FlightAware ADS-B (CYYZ)
09:44PM 42.1950 -78.0910 290° West 428 493 32,000  Level FlightAware ADS-B
09:45PM 42.2149 -78.1674 290° West 427 491 32,000  Level FlightAware ADS-B (CYYZ)
09:45PM 42.2346 -78.2421 290° West 427 491 32,000  Level FlightAware ADS-B (CYYZ)
09:46PM 42.2641 -78.3577 289° West 428 493 32,000  Level FlightAware ADS-B (CYYZ)
09:47PM 42.2921 -78.4724 289° West 427 491 32,000  Level FlightAware ADS-B (CYYZ)
09:47PM 42.3014 -78.5103 288° West 428 493 32,000  Level FlightAware ADS-B (EPLB / LUZ)
09:47PM 42.3108 -78.5482 289° West 427 491 32,000  Level FlightAware ADS-B (CYYZ)
09:48PM 42.3378 -78.6578 289° West 427 491 32,000  Level FlightAware ADS-B (CYYZ)
09:49PM 42.3576 -78.7382 289° West 427 491 32,000  Level FlightAware ADS-B (CYYZ)
09:49PM 42.3854 -78.8522 289° West 426 490 32,000  Level FlightAware ADS-B (CYYZ)
09:50PM 42.4136 -78.9678 289° West 426 490 32,000  Level FlightAware ADS-B (CYYZ)
09:51PM 42.4316 -79.0408 289° West 426 490 32,000  Level FlightAware ADS-B (CYYZ)
09:51PM 42.4512 -79.1207 289° West 426 490 32,000  Level FlightAware ADS-B (CYYZ)
09:51PM 42.4654 -79.1792 288° West 426 490 32,000  Level FlightAware ADS-B (EPLB / LUZ)
09:52PM 42.4787 -79.2338 289° West 426 490 32,000  Level FlightAware ADS-B (CYYZ)
09:52PM 42.4835 -79.2535 288° West 426 490 32,000  Level FlightAware ADS-B (EPLB / LUZ)
09:53PM 42.5069 -79.3502 289° West 425 489 32,000  Level FlightAware ADS-B (CYYZ)
09:53PM 42.5065 -79.3487 288° West 426 490 32,000  Level FlightAware ADS-B (EPLB / LUZ)
09:53PM 42.5251 -79.4258 289° West 425 489 32,000  Level FlightAware ADS-B (CYYZ)
09:53PM 42.5295 -79.4442 288° West 425 489 32,000  Level FlightAware ADS-B (EPLB / LUZ)
09:54PM 42.5526 -79.5402 288° West 424 488 32,000  Level FlightAware ADS-B (CYYZ)
09:54PM 42.5704 -79.6150 288° West 424 488 32,000  Level FlightAware ADS-B (EPLB / LUZ)
09:55PM 42.5799 -79.6547 288° West 424 488 32,000  Level FlightAware ADS-B (CYYZ)
09:55PM 42.5927 -79.7086 288° West 424 488 32,000  Level FlightAware ADS-B (EPLB / LUZ)
09:55PM 42.6062 -79.7700 284° West 425 489 32,000  Level FlightAware ADS-B (CYYZ)
09:56PM 42.6162 -79.8901 274° West 428 493 32,000  Level FlightAware ADS-B (CYYZ)
09:57PM 42.6205 -79.9869 274° West 430 495 32,000  Level FlightAware ADS-B (EPLB / LUZ)
09:57PM 42.6216 -80.0119 274° West 429 494 32,000  Level FlightAware ADS-B (CYYZ)
09:58PM 42.6269 -80.1320 274° West 428 493 32,000  Level FlightAware ADS-B (CYYZ)
09:58PM 42.6282 -80.1613 273° West 429 494 32,000  Level FlightAware ADS-B (EPLB / LUZ)
09:58PM 42.6319 -80.2527 274° West 428 493 32,000  Level FlightAware ADS-B (CYYZ)
09:58PM 42.6324 -80.2648 273° West 429 494 32,000  Level FlightAware ADS-B (EPLB / LUZ)
09:59PM 42.6370 -80.3763 274° West 427 491 32,000  Level FlightAware ADS-B (CYYZ)
09:59PM 42.6386 -80.4162 273° West 428 493 32,000  Level FlightAware ADS-B (EPLB / LUZ)
10:00PM 42.6418 -80.4975 274° West 426 490 32,000  Level FlightAware ADS-B (CYYZ)
10:00PM 42.6398 -80.4459 273° West 427 491 32,000  Level FlightAware ADS-B (CYKF)
10:00PM 42.6442 -80.5634 273° West 426 490 32,000  Level FlightAware ADS-B (CYYZ)
10:01PM 42.6474 -80.6590 273° West 424 488 32,000  Level FlightAware ADS-B (CYYZ)
10:01PM 42.6500 -80.7365 273° West 423 487 32,000  Level FlightAware ADS-B (CYYZ)
10:02PM 42.6538 -80.8492 273° West 423 487 32,000  Level FlightAware ADS-B (CYYZ)
10:03PM 42.6579 -80.9791 273° West 423 487 32,000  Level FlightAware ADS-B (CYYZ)
10:03PM 42.6575 -80.9675 272° West 423 487 32,000  Level FlightAware ADS-B (EPLB / LUZ)
10:04PM 42.6617 -81.0986 273° West 424 488 32,000  Level FlightAware ADS-B (CYYZ)
10:04PM 42.6575 -80.9675 272° West 423 487 32,000  Level FlightAware ADS-B (EPLB / LUZ)
10:04PM 42.6653 -81.2197 273° West 425 489 32,000  Level FlightAware ADS-B (CYYZ)
10:05PM 42.6751 -81.3388 279° West 422 486 32,000  Level FlightAware ADS-B (CYYZ)
10:06PM 42.6888 -81.4570 279° West 423 487 32,000  Level FlightAware ADS-B (CYYZ)
10:07PM 42.7024 -81.5755 279° West 423 487 32,000  Level FlightAware ADS-B (CYYZ)
10:07PM 42.7158 -81.6939 279° West 422 486 32,000  Level FlightAware ADS-B (CYYZ)
10:08PM 42.7291 -81.8121 279° West 422 486 32,000  Level FlightAware ADS-B (CYYZ)
10:09PM 42.7380 -81.8924 279° West 423 487 32,000  Level FlightAware ADS-B (CYYZ)
10:09PM 42.7465 -81.9691 279° West 422 486 32,000  Level FlightAware ADS-B (CYYZ)
10:10PM 42.7595 -82.0876 279° West 422 486 32,000  Level FlightAware ADS-B (CYYZ)
10:10PM 42.7673 -82.1583 279° West 215 247 32,000  Level FlightAware ADS-B (EPLB / LUZ)
10:10PM 42.7683 -82.1677 279° West 422 486 32,000  Level FlightAware ADS-B (CYYZ)
10:11PM 42.7812 -82.2872 279° West 423 487 32,000  Level FlightAware ADS-B (CYYZ)
10:12PM 42.7939 -82.4062 279° West 422 486 32,000  Level FlightAware ADS-B (CYYZ)
10:12PM 42.7975 -82.4398 278° West 422 486 32,000  Level FlightAware ADS-B (EPLB / LUZ)
10:13PM 42.8065 -82.5250 279° West 423 487 32,000  Level FlightAware ADS-B (CYYZ)
10:13PM 42.8085 -82.5442 278° West 423 487 32,000  Level FlightAware ADS-B
10:13PM 42.8217 -82.6431 281° West 422 486 32,000  Level FlightAware ADS-B (CYYZ)
10:13PM 42.8224 -82.6483 281° West 422 486 32,000  Level FlightAware ADS-B
10:14PM 42.8337 -82.7302 281° West 422 486 32,000  Level FlightAware ADS-B
10:14PM 42.8379 -82.7612 281° West 422 486 32,000  Level FlightAware ADS-B (CYYZ)
10:15PM 42.8489 -82.8431 280° West 422 486 32,000  Level FlightAware ADS-B
10:15PM 42.8492 -82.8454 281° West 421 484 32,000  Level FlightAware ADS-B (CYYZ)
10:15PM 42.8519 -82.8657 280° West 422 486 32,000  Level FlightAware ADS-B
10:16PM 42.8685 -82.9898 281° West 421 484 32,000  Level FlightAware ADS-B (CYYZ)
10:16PM 42.8853 -83.1157 281° West 422 486 32,000  Level FlightAware ADS-B (CYYZ)
10:16PM 42.8847 -83.1112 280° West 423 487 32,000  Level FlightAware ADS-B
10:17PM 42.9007 -83.2326 281° West 424 488 32,000  Level FlightAware ADS-B (CYYZ)
10:17PM 42.9017 -83.2407 280° West 425 489 32,000  Level FlightAware ADS-B
10:18PM 42.9111 -83.3129 281° West 425 489 32,000  Level FlightAware ADS-B (CYYZ)
10:18PM 42.9017 -83.2407 280° West 425 489 32,000  Level FlightAware ADS-B
10:18PM 42.9214 -83.3924 280° West 427 491 32,000  Level FlightAware ADS-B (CYYZ)
10:18PM 42.9203 -83.3834 280° West 427 491 32,000  Level FlightAware ADS-B
10:19PM 42.9300 -83.4582 280° West 429 494 32,000  Level FlightAware ADS-B (CYYZ)
10:19PM 42.9341 -83.4903 280° West 429 494 32,000  Level FlightAware ADS-B
10:19PM 42.9470 -83.5915 280° West 430 495 32,000  Level FlightAware ADS-B (CYYZ)
10:19PM 42.9473 -83.5939 280° West 430 495 32,000  Level FlightAware ADS-B
10:20PM 42.9577 -83.6749 280° West 429 494 32,000  Level FlightAware ADS-B (CYYZ)
10:20PM 42.9586 -83.6821 280° West 428 493 32,000  Level FlightAware ADS-B
10:20PM 42.9724 -83.7528 291° West 423 487 32,000  Level FlightAware ADS-B (CYYZ)
10:21PM 42.9687 -83.7387 292° West 423 487 32,000  Level FlightAware ADS-B
10:21PM 42.9979 -83.8216 299° West 421 484 32,000 338 Level FlightAware ADS-B (CYYZ)
10:22PM 43.0421 -83.9295 300° West 417 480 32,400 737 Climbing FlightAware ADS-B (CYYZ)
10:22PM 43.0513 -83.9519 299° West 417 480 32,700 1,565 Climbing FlightAware ADS-B
10:22PM 43.0820 -84.0268 300° West 403 464 33,600 1,636 Climbing FlightAware ADS-B (CYYZ)
10:23PM 43.0919 -84.0510 299° West 400 460 33,900 632 Climbing FlightAware ADS-B
10:23PM 43.1186 -84.1162 299° West 399 459 34,000 167 Climbing FlightAware ADS-B
10:23PM 43.1240 -84.1294 300° West 398 458 34,000  Level FlightAware ADS-B (CYYZ)
10:24PM 43.1426 -84.1747 299° West 400 460 34,000  Level FlightAware ADS-B
10:24PM 43.1532 -84.2007 300° West 400 460 34,000  Level FlightAware ADS-B (CYYZ)
10:24PM 43.1741 -84.2520 299° West 402 463 34,000  Level FlightAware ADS-B
10:25PM 43.2021 -84.3209 299° West 402 463 34,000  Level FlightAware ADS-B
10:26PM 43.2532 -84.4475 299° West 402 463 34,000  Level FlightAware ADS-B
10:27PM 43.3154 -84.6017 299° West 404 465 34,000  Level FlightAware ADS-B
10:28PM 43.3604 -84.7140 299° West 405 466 34,000  Level FlightAware ADS-B
10:28PM 43.3990 -84.8105 299° West 405 466 34,000  Level FlightAware ADS-B
10:29PM 43.4133 -84.8463 296° West 405 466 34,000  Level FlightAware ADS-B
10:33PM 43.6317 -85.4482 296° West 404 465 34,000  Level FlightAware ADS-B
10:34PM 43.6567 -85.5188 296° West 404 465 34,000  Level FlightAware ADS-B
10:35PM 43.7504 -85.7856 296° West 404 465 34,000  Level FlightAware ADS-B
10:37PM 43.8057 -85.9446 296° West 407 468 34,000  Level FlightAware ADS-B
10:38PM 43.8955 -86.2045 295° West 411 473 34,000  Level FlightAware ADS-B
10:40PM 43.9717 -86.4270 295° West 413 475 34,000  Level FlightAware ADS-B
10:42PM 44.0569 -86.6779 295° West 415 478 34,000  Level FlightAware ADS-B
10:42PM 44.0824 -86.7534 295° West 415 478 34,000  Level FlightAware ADS-B
10:43PM 44.1227 -86.8733 295° West 416 479 34,000  Level FlightAware ADS-B
10:44PM 44.1543 -86.9679 295° West 416 479 34,000  Level FlightAware ADS-B
10:45PM 44.1874 -87.0672 295° West 416 479 34,000  Level FlightAware ADS-B
10:45PM 44.2292 -87.1926 295° West 416 479 34,000  Level FlightAware ADS-B
10:46PM 44.2543 -87.2683 295° West 416 479 34,000  Level FlightAware ADS-B
10:46PM 44.2824 -87.3533 295° West 416 479 34,000  Level FlightAware ADS-B
10:47PM 44.2911 -87.3799 295° West 416 479 34,000  Level FlightAware ADS-B
10:48PM 44.3511 -87.5631 295° West 415 478 34,000  Level FlightAware ADS-B
10:49PM 44.3908 -87.6850 294° West 415 478 34,000  Level FlightAware ADS-B
10:49PM 44.4147 -87.7586 294° West 415 478 34,000  Level FlightAware ADS-B
10:50PM 44.4423 -87.8435 294° West 416 479 34,000  Level FlightAware ADS-B
10:50PM 44.4807 -87.9624 294° West 416 479 34,000  Level FlightAware ADS-B
10:51PM 44.5242 -88.0982 294° West 418 481 34,000  Level FlightAware ADS-B
10:52PM 44.5422 -88.1544 294° West 418 481 34,000  Level FlightAware ADS-B
10:52PM 44.5646 -88.2676 280° West 420 483 34,000  Level FlightAware ADS-B
10:54PM 44.5903 -88.4639 280° West 421 484 34,000  Level Minneapolis Center
10:55PM 44.6108 -88.6250 280° West 423 487 34,000  Level Minneapolis Center
10:56PM 44.6311 -88.7894 280° West 425 489 34,000  Level Minneapolis Center
11:01PM 44.7462 -89.7379 279° West 431 496 34,000  Level FlightAware ADS-B (ESMS / MMX)
11:02PM 44.7640 -89.8907 279° West 431 496 34,000  Level FlightAware ADS-B (ESMS / MMX)
11:03PM 44.7837 -90.0628 279° West 431 496 34,000  Level FlightAware ADS-B (ESMS / MMX)
11:04PM 44.7925 -90.1419 279° West 430 495 34,000  Level Minneapolis Center
11:05PM 44.8106 -90.3083 279° West 431 496 34,000  Level Minneapolis Center
11:06PM 44.8292 -90.4747 279° West 431 496 34,000  Level Minneapolis Center
11:12PM 44.9314 -91.4392 279° West 441 507 34,000  Level FlightAware ADS-B (KSGS)
11:12PM 44.9455 -91.5800 279° West 441 507 34,000  Level FlightAware ADS-B (KSGS)
11:13PM 44.9532 -91.6570 278° West 441 507 34,000  Level FlightAware ADS-B (KSGS)
11:13PM 44.9623 -91.7490 278° West 440 506 34,000  Level FlightAware ADS-B (KSGS)
11:14PM 44.9711 -91.8381 278° West 439 505 34,000  Level FlightAware ADS-B (KSGS)
11:14PM 44.9789 -91.9184 278° West 439 505 34,000  Level FlightAware ADS-B (KSGS)
11:14PM 44.9794 -91.9238 278° West 439 505 34,000  Level FlightAware ADS-B (ESMS / MMX)
11:15PM 44.9876 -92.0087 278° West 438 504 34,000  Level FlightAware ADS-B (KSGS)
11:15PM 44.9887 -92.0203 278° West 439 505 34,000  Level FlightAware ADS-B (ESMS / MMX)
11:15PM 44.9957 -92.0940 278° West 438 504 34,000  Level FlightAware ADS-B (KSGS)
11:16PM 45.0007 -92.1455 278° West 439 505 34,000  Level FlightAware ADS-B (ESMS / MMX)
11:16PM 45.0033 -92.1735 278° West 438 504 34,000  Level FlightAware ADS-B (KSGS)
11:16PM 45.0117 -92.2623 278° West 439 505 34,000  Level FlightAware ADS-B (KSGS)
11:17PM 45.0196 -92.3480 278° West 439 505 34,000  Level FlightAware ADS-B (KSGS)
11:17PM 45.0275 -92.4350 276° West 440 506 34,000  Level FlightAware ADS-B (KSGS)
11:18PM 45.0271 -92.5200 266° West 438 504 34,000  Level FlightAware ADS-B (KSGS)
11:18PM 45.0255 -92.5424 264° West 439 505 34,000  Level FlightAware ADS-B (ESMS / MMX)
11:18PM 45.0206 -92.6084 265° West 439 505 34,000  Level FlightAware ADS-B (KLVN)
11:19PM 45.0167 -92.6620 264° West 440 506 34,000  Level FlightAware ADS-B (ESMS / MMX)
11:19PM 45.0163 -92.6682 265° West 440 506 34,000  Level FlightAware ADS-B (KLVN)
11:19PM 45.0093 -92.7625 264° West 442 509 34,000  Level FlightAware ADS-B (ESMS / MMX)
11:20PM 45.0028 -92.8508 264° West 443 510 34,000  Level FlightAware ADS-B (KLVN)
11:20PM 45.0001 -92.8854 264° West 444 511 34,000  Level FlightAware ADS-B (ESMS / MMX)
11:20PM 44.9942 -92.9641 264° West 445 512 34,000  Level FlightAware ADS-B (KLVN)
11:21PM 44.9912 -93.0044 264° West 446 513 34,000  Level FlightAware ADS-B (ESMS / MMX)
11:21PM 44.9875 -93.0521 264° West 446 513 34,000  Level FlightAware ADS-B (KLVN)
11:21PM 44.9820 -93.1242 264° West 448 516 34,000  Level FlightAware ADS-B (ESMS / MMX)
11:21PM 44.9806 -93.1410 264° West 447 514 34,000  Level FlightAware ADS-B (KLVN)
11:22PM 44.9745 -93.2192 264° West 447 514 34,000  Level FlightAware ADS-B (KLVN)
11:22PM 44.9729 -93.2389 264° West 449 517 34,000  Level FlightAware ADS-B (ESMS / MMX)
11:22PM 44.9672 -93.3115 264° West 448 516 34,000  Level FlightAware ADS-B (KLVN)
11:23PM 44.9644 -93.3475 264° West 449 517 34,000  Level FlightAware ADS-B (ESMS / MMX)
11:23PM 44.9613 -93.3870 264° West 448 516 34,000  Level FlightAware ADS-B (KLVN)
11:23PM 44.9545 -93.4718 264° West 449 517 34,000  Level FlightAware ADS-B (ESMS / MMX)
11:23PM 44.9531 -93.4886 264° West 448 516 34,000  Level FlightAware ADS-B (KLVN)
11:24PM 44.9463 -93.5734 264° West 447 514 34,000  Level FlightAware ADS-B (KLVN)
11:24PM 44.9458 -93.5789 264° West 448 516 34,000  Level FlightAware ADS-B (ESMS / MMX)
11:24PM 44.9405 -93.6452 264° West 447 514 34,000  Level FlightAware ADS-B (KLVN)
11:25PM 44.9367 -93.6914 263° West 446 513 34,000  Level FlightAware ADS-B (ESMS / MMX)
11:25PM 44.9336 -93.7283 264° West 446 513 34,000  Level FlightAware ADS-B (KLVN)
11:25PM 44.9260 -93.8202 263° West 445 512 34,000  Level FlightAware ADS-B (ESMS / MMX)
11:25PM 44.9282 -93.7943 264° West 445 512 34,000  Level FlightAware ADS-B (KLVN)
11:26PM 44.9218 -93.8704 264° West 444 511 34,000  Level FlightAware ADS-B (KLVN)
11:26PM 44.9203 -93.8896 263° West 444 511 34,000  Level FlightAware ADS-B (ESMS / MMX)
11:26PM 44.9218 -93.8704 264° West 444 511 34,000  Level FlightAware ADS-B (KLVN)
11:27PM 44.9074 -94.0416 263° West 442 509 34,000  Level FlightAware ADS-B (ESMS / MMX)
11:27PM 44.9007 -94.1191 263° West 441 507 34,000  Level FlightAware ADS-B (ESMS / MMX)
11:28PM 44.8943 -94.1937 264° West 440 506 34,000  Level FlightAware ADS-B (KSGS)
11:28PM 44.8872 -94.2752 263° West 440 506 34,000  Level FlightAware ADS-B (ESMS / MMX)
11:28PM 44.8868 -94.2794 263° West 440 506 34,000  Level FlightAware ADS-B (KSGS)
11:29PM 44.8796 -94.3620 263° West 439 505 34,000  Level FlightAware ADS-B (KSGS)
11:29PM 44.8773 -94.3875 263° West 439 505 34,000  Level FlightAware ADS-B (ESMS / MMX)
11:29PM 44.8719 -94.4486 263° West 439 505 34,000  Level FlightAware ADS-B (KSGS)
11:29PM 44.8671 -94.5021 263° West 440 506 34,000  Level FlightAware ADS-B (ESMS / MMX)
11:30PM 44.8643 -94.5336 263° West 439 505 34,000  Level FlightAware ADS-B (KSGS)
11:30PM 44.8567 -94.6180 263° West 439 505 34,000  Level FlightAware ADS-B (KSGS)
11:31PM 44.8489 -94.7025 263° West 440 506 34,000  Level FlightAware ADS-B (KSGS)
11:31PM 44.8409 -94.7895 263° West 441 507 34,000  Level FlightAware ADS-B (KSGS)
11:32PM 44.8335 -94.8708 263° West 442 509 34,000  Level FlightAware ADS-B (KSGS)
11:32PM 44.8252 -94.9592 263° West 442 509 34,000  Level FlightAware ADS-B (KSGS)
11:33PM 44.8171 -95.0457 263° West 443 510 34,000  Level FlightAware ADS-B (KSGS)
11:33PM 44.8096 -95.1236 263° West 443 510 34,000  Level FlightAware ADS-B (KSGS)
11:34PM 44.8009 -95.2152 263° West 442 509 34,000  Level FlightAware ADS-B (KSGS)
11:34PM 44.7926 -95.3024 263° West 442 509 34,000  Level FlightAware ADS-B (KSGS)
11:35PM 44.7843 -95.3885 263° West 440 506 34,000  Level FlightAware ADS-B (KSGS)
11:35PM 44.7761 -95.4727 263° West 438 504 34,000  Level FlightAware ADS-B (KSGS)
11:36PM 44.7682 -95.5534 263° West 437 503 34,000  Level FlightAware ADS-B (KSGS)
11:36PM 44.7654 -95.5817 262° West 436 502 34,000  Level FlightAware ADS-B (KSGS)
11:38PM 44.7492 -95.7418 262° West 435 501 34,000  Level FlightAware ADS-B (KSGS)
11:39PM 44.7156 -96.0808 262° West 434 499 34,000  Level Minneapolis Center
11:40PM 44.6978 -96.2453 261° West 432 497 34,000  Level Minneapolis Center
11:41PM 44.6808 -96.4094 262° West 431 496 34,000  Level Minneapolis Center
11:42PM 44.6617 -96.5731 261° West 430 495 34,000  Level Minneapolis Center
11:43PM 44.6447 -96.7372 262° West 430 495 34,000  Level Minneapolis Center
11:44PM 44.6264 -96.9014 261° West 429 494 34,000  Level Minneapolis Center
11:45PM 44.6078 -97.0661 261° West 429 494 34,000  Level Minneapolis Center
11:46PM 44.5886 -97.2319 261° West 430 495 34,000  Level Minneapolis Center
11:47PM 44.5658 -97.4317 261° West 432 497 34,000  Level Minneapolis Center
11:48PM 44.5456 -97.5975 260° West 433 498 34,000  Level Minneapolis Center
11:49PM 44.5258 -97.7617 260° West 432 497 34,000  Level Minneapolis Center
11:50PM 44.5067 -97.9253 261° West 430 495 34,000  Level Minneapolis Center
11:51PM 44.4864 -98.0872 260° West 427 491 34,000  Level Minneapolis Center
11:52PM 44.4669 -98.2503 261° West 427 491 34,000  Level Minneapolis Center
11:53PM 44.4375 -98.4036 255° West 426 490 34,000  Level Minneapolis Center
11:54PM 44.4075 -98.5631 255° West 424 488 34,000  Level Minneapolis Center
11:55PM 44.3758 -98.7242 255° West 424 488 34,000  Level Minneapolis Center
11:56PM 44.3436 -98.8853 254° West 427 491 34,000  Level Minneapolis Center
11:57PM 44.3056 -99.0817 255° West 432 497 34,000  Level Minneapolis Center
11:58PM 44.2736 -99.2442 255° West 432 497 34,000  Level Minneapolis Center
11:59PM 44.2389 -99.4086 254° West 433 498 34,000  Level Minneapolis Center
12:00AM 44.2050 -99.5758 254° West 440 506 34,000  Level Minneapolis Center
12:01AM 44.1703 -99.7447 254° West 446 513 34,000  Level Minneapolis Center
12:02AM 44.1356 -99.9125 254° West 446 513 34,000  Level Minneapolis Center
12:03AM 44.1011 -100.0811 254° West 447 514 34,000  Level Minneapolis Center
12:04AM 44.0667 -100.2478 254° West 448 516 34,000  Level Minneapolis Center
12:05AM 44.0311 -100.4150 254° West 448 516 34,000  Level Minneapolis Center
12:06AM 43.9958 -100.5817 254° West 448 516 34,000  Level Minneapolis Center
12:07AM 43.9606 -100.7469 254° West 448 516 34,000  Level Minneapolis Center
12:08AM 43.9258 -100.9125 254° West 448 516 34,000  Level Minneapolis Center
12:09AM 43.8892 -101.0753 253° West 447 514 34,000  Level Minneapolis Center
12:10AM 43.8533 -101.2367 253° West 443 510 34,000  Level Minneapolis Center
12:11AM 43.8183 -101.3986 253° West 442 509 34,000  Level Minneapolis Center
12:12AM 43.7814 -101.5617 253° West 442 509 34,000  Level Minneapolis Center
12:13AM 43.7453 -101.7208 253° West 441 507 34,000  Level Minneapolis Center
12:14AM 43.7083 -101.8814 252° West 441 507 34,000  Level Minneapolis Center
12:16AM 43.6656 -102.0731 253° West 437 503 34,000  Level Denver Center
12:21AM 43.4388 -103.0454 252° West 432 497 34,000  Level FlightAware ADS-B (KEIK)
12:23AM 43.3947 -103.2279 252° West 430 495 34,000  Level FlightAware ADS-B (KEIK)
12:23AM 43.3755 -103.3076 252° West 429 494 34,000  Level FlightAware ADS-B (KEIK)
12:24AM 43.3317 -103.4880 251° West 429 494 34,000  Level FlightAware ADS-B (KEIK)
12:25AM 43.2975 -103.6271 251° West 429 494 34,000  Level FlightAware ADS-B (KEIK)
12:26AM 43.2610 -103.7750 251° West 432 497 34,000  Level FlightAware ADS-B (KEIK)
12:27AM 43.2418 -103.8530 251° West 434 499 34,000  Level FlightAware ADS-B (KEIK)
12:27AM 43.2097 -103.9821 251° West 436 502 34,000  Level FlightAware ADS-B (KEIK)
12:28AM 43.1895 -104.0630 251° West 436 502 34,000  Level FlightAware ADS-B (KEIK)
12:29AM 43.1636 -104.1664 251° West 438 504 34,000  Level FlightAware ADS-B (KEIK)
12:29AM 43.1461 -104.2355 251° West 439 505 34,000  Level FlightAware ADS-B (KEIK)
12:30AM 43.1185 -104.3447 251° West 440 506 34,000  Level FlightAware ADS-B (KEIK)
12:30AM 43.0973 -104.4282 251° West 441 507 34,000  Level FlightAware ADS-B (KEIK)
12:31AM 43.0767 -104.5090 251° West 441 507 34,000  Level FlightAware ADS-B (KEIK)
12:31AM 43.0589 -104.5791 251° West 441 507 34,000  Level FlightAware ADS-B (KEIK)
12:32AM 43.0340 -104.6759 251° West 439 505 34,000  Level FlightAware ADS-B (KEIK)
12:33AM 43.0111 -104.7648 251° West 439 505 34,000  Level FlightAware ADS-B (KEIK)
12:33AM 42.9836 -104.8711 251° West 437 503 34,000  Level FlightAware ADS-B (KEIK)
12:34AM 42.9633 -104.9497 251° West 435 501 34,000  Level FlightAware ADS-B (KEIK)
12:34AM 42.9423 -105.0307 251° West 434 499 34,000  Level FlightAware ADS-B (KEIK)
12:35AM 42.9212 -105.1117 250° West 433 498 34,000  Level FlightAware ADS-B (KEIK)
12:35AM 42.8932 -105.2184 250° West 432 497 34,000  Level FlightAware ADS-B (KEIK)
12:36AM 42.8743 -105.2898 250° West 433 498 34,000  Level FlightAware ADS-B (KEIK)
12:36AM 42.8524 -105.3721 250° West 433 498 34,000  Level FlightAware ADS-B (KEIK)
12:37AM 42.8315 -105.4517 250° West 434 499 34,000  Level FlightAware ADS-B (KEIK)
12:37AM 42.8108 -105.5296 250° West 435 501 34,000  Level FlightAware ADS-B (KEIK)
12:38AM 42.7877 -105.6163 250° West 435 501 34,000  Level FlightAware ADS-B (KEIK)
12:39AM 42.7681 -105.6895 250° West 435 501 34,000  Level FlightAware ADS-B (KEIK)
12:39AM 42.7430 -105.7827 250° West 436 502 34,000  Level FlightAware ADS-B (KEIK)
12:40AM 42.7217 -105.8615 250° West 437 503 34,000  Level FlightAware ADS-B (KEIK)
12:40AM 42.6972 -105.9523 250° West 437 503 34,000  Level FlightAware ADS-B (KEIK)
12:41AM 42.6711 -106.0485 250° West 438 504 34,000  Level FlightAware ADS-B (KEIK)
12:42AM 42.6377 -106.1713 250° West 440 506 34,000  Level FlightAware ADS-B (KEIK)
12:42AM 42.6126 -106.2628 250° West 440 506 34,000  Level FlightAware ADS-B (KEIK)
12:43AM 42.5915 -106.3397 250° West 441 507 34,000  Level FlightAware ADS-B (KEIK)
12:43AM 42.5699 -106.4182 250° West 442 509 34,000  Level FlightAware ADS-B (KEIK)
12:44AM 42.5412 -106.5218 249° West 442 509 34,000  Level FlightAware ADS-B (KEIK)
12:45AM 42.4939 -106.6967 249° West 443 510 34,000  Level Denver Center
12:46AM 42.4508 -106.8444 248° West 443 510 34,000  Level Denver Center
12:47AM 42.4064 -107.0053 250° West 444 511 34,000  Level Denver Center
12:48AM 42.3625 -107.1531 248° West 442 509 34,000  Level Denver Center
12:49AM 42.3158 -107.3253 250° West 440 506 34,000  Level Denver Center
12:50AM 42.2653 -107.4958 248° West 439 505 34,000  Level Salt Lake Center
12:51AM 42.2233 -107.6411 249° West 438 504 34,000  Level Salt Lake Center
12:52AM 42.1694 -107.8086 247° West 439 505 34,000  Level Salt Lake Center
12:53AM 42.1050 -107.9361 236° Southwest 431 496 34,000  Level Salt Lake Center
12:54AM 42.0383 -108.0661 235° Southwest 436 502 34,000 308 Level Salt Lake Center
01:00AM 41.6396 -108.8308 234° Southwest 441 507 36,000 267 Climbing FlightAware ADS-B
01:02AM 41.4933 -109.0952 234° Southwest 448 516 36,000  Level FlightAware ADS-B
01:03AM 41.4104 -109.2450 233° Southwest 450 518 36,000  Level FlightAware ADS-B
01:03AM 41.3704 -109.3209 238° Southwest 450 518 36,000  Level FlightAware ADS-B
01:04AM 41.3301 -109.4144 241° Southwest 453 521 36,000  Level FlightAware ADS-B
01:05AM 41.2851 -109.5477 250° West 453 521 36,000  Level FlightAware ADS-B
01:06AM 41.2467 -109.6893 250° West 455 524 36,000  Level FlightAware ADS-B
01:07AM 41.2180 -109.7944 250° West 457 526 36,000  Level FlightAware ADS-B
01:07AM 41.1953 -109.8772 250° West 460 529 36,000  Level FlightAware ADS-B
01:08AM 41.1646 -109.9885 250° West 462 532 36,000  Level FlightAware ADS-B
01:09AM 41.1113 -110.1802 250° West 462 532 36,000  Level FlightAware ADS-B
01:10AM 41.0769 -110.3032 250° West 462 532 36,000  Level FlightAware ADS-B
01:11AM 41.0119 -110.5337 250° West 457 526 36,000  Level FlightAware ADS-B
01:12AM 40.9813 -110.6417 249° West 457 526 36,000  Level FlightAware ADS-B
01:12AM 40.9577 -110.7245 249° West 458 527 36,000  Level FlightAware ADS-B
01:13AM 40.9267 -110.8329 249° West 457 526 36,000  Level FlightAware ADS-B
01:14AM 40.9033 -110.9145 249° West 456 525 36,000  Level FlightAware ADS-B
01:15AM 40.8638 -111.0515 249° West 455 524 36,000  Level FlightAware ADS-B
01:15AM 40.8380 -111.1407 249° West 454 522 36,000  Level FlightAware ADS-B
01:16AM 40.8185 -111.2072 249° West 453 521 36,000  Level FlightAware ADS-B
01:16AM 40.7872 -111.3151 249° West 453 521 36,000  Level FlightAware ADS-B
01:17AM 40.7644 -111.3931 249° West 453 521 36,000  Level FlightAware ADS-B
01:17AM 40.7355 -111.4916 249° West 452 520 36,000  Level FlightAware ADS-B
01:18AM 40.7128 -111.5690 249° West 451 519 36,000  Level FlightAware ADS-B (KBTF)
01:18AM 40.6906 -111.6445 249° West 450 518 36,000  Level FlightAware ADS-B
01:19AM 40.6598 -111.7490 249° West 457 526 36,000  Level FlightAware ADS-B
01:20AM 40.6358 -111.8299 249° West 459 528 36,000  Level FlightAware ADS-B
01:20AM 40.6115 -111.9108 250° West 455 524 36,000  Level FlightAware ADS-B
01:21AM 40.5843 -112.0014 249° West 455 524 36,000  Level FlightAware ADS-B
01:21AM 40.5610 -112.0789 249° West 450 518 36,000  Level FlightAware ADS-B (KBTF)
01:22AM 40.5362 -112.1612 248° West 453 521 36,000  Level FlightAware ADS-B
01:22AM 40.5201 -112.2145 249° West 449 517 36,000  Level FlightAware ADS-B (KBTF)
01:22AM 40.5044 -112.2661 249° West 449 517 36,000  Level FlightAware ADS-B (KBTF)
01:23AM 40.4776 -112.3555 249° West 451 519 36,000  Level FlightAware ADS-B
01:24AM 40.4482 -112.4520 249° West 448 516 36,000  Level FlightAware ADS-B (KBTF)
01:24AM 40.4179 -112.5504 249° West 452 520 36,000  Level FlightAware ADS-B (KBTF)
01:25AM 40.3911 -112.6378 249° West 452 520 36,000  Level FlightAware ADS-B (KBTF)
01:25AM 40.3651 -112.7228 248° West 456 525 36,000  Level FlightAware ADS-B
01:26AM 40.3337 -112.8248 248° West 456 525 36,000  Level FlightAware ADS-B
01:26AM 40.3180 -112.8760 249° West 452 520 36,000  Level FlightAware ADS-B (KBTF)
01:27AM 40.2744 -113.0162 249° West 446 513 36,000  Level FlightAware ADS-B
01:28AM 40.2489 -113.0978 249° West 442 509 36,000  Level FlightAware ADS-B
01:28AM 40.2235 -113.1793 248° West 444 511 36,000  Level FlightAware ADS-B
01:29AM 40.1918 -113.2805 248° West 444 511 36,000  Level FlightAware ADS-B
01:29AM 40.1760 -113.3307 249° West 440 506 36,000  Level FlightAware ADS-B
01:30AM 40.1459 -113.4263 248° West 442 509 36,000  Level FlightAware ADS-B
01:30AM 40.1292 -113.4790 249° West 439 505 36,000  Level FlightAware ADS-B (KBTF)
01:31AM 40.1037 -113.5591 249° West 439 505 36,000  Level FlightAware ADS-B (KBTF)
01:32AM 40.0723 -113.6580 248° West 438 504 36,000  Level FlightAware ADS-B (KBTF)
01:32AM 40.0484 -113.7331 248° West 437 503 36,000  Level FlightAware ADS-B
01:33AM 40.0247 -113.8070 248° West 436 502 36,000  Level FlightAware ADS-B (KBTF)
01:33AM 40.0009 -113.8809 248° West 435 501 36,000  Level FlightAware ADS-B
01:34AM 39.9736 -113.9658 247° West 437 503 36,000  Level FlightAware ADS-B
01:34AM 39.9589 -114.0116 248° West 434 499 36,000  Level FlightAware ADS-B (KBTF)
01:35AM 39.9321 -114.0955 248° West 437 503 36,000  Level FlightAware ADS-B (KBTF)
01:35AM 39.9091 -114.1746 250° West 433 498 36,000  Level FlightAware ADS-B
01:36AM 39.8881 -114.2467 250° West 434 499 36,000  Level FlightAware ADS-B
01:36AM 39.8843 -114.2592 249° West 437 503 36,000  Level FlightAware ADS-B
01:36AM 39.8621 -114.3338 249° West 439 505 36,000  Level FlightAware ADS-B (KBTF)
01:37AM 39.8344 -114.4259 249° West 441 507 36,000  Level FlightAware ADS-B
01:37AM 39.8079 -114.5137 249° West 441 507 36,000  Level FlightAware ADS-B (KBTF)
01:38AM 39.7754 -114.6214 249° West 441 507 36,000  Level FlightAware ADS-B
01:39AM 39.7449 -114.7223 249° West 439 505 36,000  Level FlightAware ADS-B
01:40AM 39.7093 -114.8390 249° West 439 505 36,000  Level FlightAware ADS-B (KBTF)
01:40AM 39.6801 -114.9349 248° West 437 503 36,000  Level FlightAware ADS-B (KBTF)
01:41AM 39.6437 -115.0531 248° West 436 502 36,000  Level FlightAware ADS-B (KBTF)
01:42AM 39.6127 -115.1541 248° West 436 502 36,000  Level FlightAware ADS-B (KBTF)
01:43AM 39.5639 -115.3119 248° West 436 502 36,000  Level Salt Lake Center
01:44AM 39.5164 -115.4617 248° West 440 506 36,000  Level Salt Lake Center
01:45AM 39.4697 -115.6103 248° West 443 510 36,000  Level Salt Lake Center
01:46AM 39.4239 -115.7583 248° West 444 511 36,000  Level Salt Lake Center
01:47AM 39.3778 -115.9042 248° West 442 509 36,000  Level Salt Lake Center
01:48AM 39.3317 -116.0497 248° West 439 505 36,000  Level Salt Lake Center
01:49AM 39.2847 -116.1922 247° West 436 502 36,000  Level Salt Lake Center
01:50AM 39.2381 -116.3372 247° West 436 502 36,000  Level Salt Lake Center
01:51AM 39.1925 -116.4792 248° West 436 502 36,000  Level Salt Lake Center
01:52AM 39.1464 -116.6222 247° West 433 498 36,000  Level Salt Lake Center
01:53AM 39.0997 -116.7642 247° West 433 498 36,000  Level Salt Lake Center
01:54AM 39.0450 -116.9317 247° West 433 498 36,000  Level Salt Lake Center
01:55AM 38.9983 -117.0739 247° West 433 498 36,000  Level Salt Lake Center
01:56AM 38.9503 -117.2214 247° West 433 498 36,000  Level Oakland Center
01:57AM 38.8944 -117.3892 247° West 434 499 36,000  Level Oakland Center
01:58AM 38.8469 -117.5319 247° West 436 502 36,000  Level Oakland Center
01:59AM 38.8006 -117.6722 247° West 436 502 36,000  Level Oakland Center
02:00AM 38.7614 -117.7853 246° West 421 484 36,000  Level Oakland Center
02:01AM 38.7164 -117.9189 247° West 415 478 36,000  Level Oakland Center
02:07AM 38.4463 -118.7017 246° West 424 488 36,000  Level FlightAware ADS-B
02:08AM 38.4150 -118.7912 246° West 424 488 36,000  Level FlightAware ADS-B
02:09AM 38.3748 -118.9059 246° West 424 488 36,000  Level FlightAware ADS-B
02:09AM 38.3394 -119.0062 246° West 424 488 36,000  Level FlightAware ADS-B
02:10AM 38.3070 -119.0980 246° West 424 488 36,000  Level FlightAware ADS-B
02:11AM 38.2742 -119.1904 246° West 423 487 36,000  Level FlightAware ADS-B
02:11AM 38.2421 -119.2805 246° West 422 486 36,000  Level FlightAware ADS-B
02:12AM 38.2092 -119.3725 246° West 420 483 36,000  Level FlightAware ADS-B
02:13AM 38.1769 -119.4628 246° West 418 481 36,000  Level FlightAware ADS-B
02:13AM 38.1459 -119.5492 246° West 416 479 36,000  Level FlightAware ADS-B
02:14AM 38.1138 -119.6385 246° West 414 476 36,000  Level FlightAware ADS-B
02:14AM 38.1039 -119.6660 246° West 414 476 36,000 -360 Level FlightAware ADS-B
02:15AM 38.0765 -119.7416 245° Southwest 414 476 35,700 -871 Descending FlightAware ADS-B
02:15AM 38.0498 -119.8156 245° Southwest 414 476 35,100 -1,029 Descending FlightAware ADS-B
02:16AM 38.0179 -119.9035 245° Southwest 415 478 34,500 -900 Descending FlightAware ADS-B
02:17AM 37.9855 -119.9923 245° Southwest 415 478 33,900 -975 Descending FlightAware ADS-B
02:17AM 37.9533 -120.0805 245° Southwest 417 480 33,200 -1,000 Descending FlightAware ADS-B
02:18AM 37.9227 -120.1634 245° Southwest 417 480 32,600 -975 Descending FlightAware ADS-B
02:19AM 37.8905 -120.2511 245° Southwest 422 486 31,900 -1,463 Descending FlightAware ADS-B
02:19AM 37.8553 -120.3468 245° Southwest 419 482 30,600 -2,025 Descending FlightAware ADS-B
02:20AM 37.8232 -120.4338 245° Southwest 414 476 29,200 -2,127 Descending FlightAware ADS-B
02:21AM 37.7947 -120.5110 245° Southwest 407 468 27,800 -2,108 Descending FlightAware ADS-B
02:21AM 37.7641 -120.5932 245° Southwest 400 460 26,600 -2,080 Descending FlightAware ADS-B
02:22AM 37.7330 -120.6762 245° Southwest 391 450 25,200 -2,127 Descending FlightAware ADS-B
02:23AM 37.7029 -120.7566 245° Southwest 384 442 23,800 -2,023 Descending FlightAware ADS-B
02:23AM 37.6677 -120.8504 245° Southwest 380 437 22,300 -1,976 Descending FlightAware ADS-B
02:24AM 37.6414 -120.9204 245° Southwest 374 430 21,100 -2,000 Descending FlightAware ADS-B
02:25AM 37.6224 -121.0025 262° West 371 427 19,800 -2,028 Descending FlightAware ADS-B
02:25AM 37.6157 -121.0625 262° West 367 422 18,700 -2,066 Descending FlightAware ADS-B
02:26AM 37.6080 -121.1315 262° West 360 414 17,700 -1,938 Descending FlightAware ADS-B
02:26AM 37.5998 -121.2026 262° West 361 415 16,600 -1,789 Descending FlightAware ADS-B
02:27AM 37.5944 -121.2480 262° West 351 404 16,000 -1,800 Descending FlightAware ADS-B
02:27AM 37.5944 -121.2484 262° West 349 402 15,400 -1,935 Descending FlightAware ADS-B
02:27AM 37.5872 -121.3110 262° West 348 400 15,000 -1,814 Descending FlightAware ADS-B
02:28AM 37.5807 -121.3694 262° West 343 395 14,100 -1,742 Descending FlightAware ADS-B
02:28AM 37.5805 -121.3720 262° West 343 395 14,100 -1,800 Level FlightAware ADS-B
02:28AM 37.5780 -121.3900 260° West 340 391 13,800 -1,235 Descending FlightAware ADS-B
02:28AM 37.5706 -121.4319 257° West 333 383 13,400 -968 Descending FlightAware ADS-B
02:28AM 37.5675 -121.4490 257° West 330 380 13,300 -667 Descending FlightAware ADS-B
02:29AM 37.5577 -121.5030 257° West 308 354 13,000 -486 Descending FlightAware ADS-B
02:29AM 37.5556 -121.5152 257° West 303 349 13,000 -387 Level FlightAware ADS-B
02:29AM 37.5485 -121.5550 257° West 280 322 12,800 -750 Descending FlightAware ADS-B
02:29AM 37.5448 -121.5764 258° West 268 308 12,500 -968 Descending FlightAware ADS-B
02:30AM 37.5403 -121.6020 258° West 260 299 12,300 -1,059 Descending FlightAware ADS-B
02:30AM 37.5398 -121.6044 258° West 258 297 12,200 -1,200 Descending FlightAware ADS-B
02:30AM 37.5324 -121.6450 257° West 250 288 11,700 -1,091 Descending FlightAware ADS-B
02:31AM 37.5293 -121.6627 257° West 246 283 11,400 -1,161 Descending FlightAware ADS-B
02:31AM 37.5239 -121.6870 250° West 243 280 11,100 -1,579 Descending FlightAware ADS-B
02:31AM 37.5219 -121.6918 243° Southwest 242 278 10,900 -2,000 Descending FlightAware ADS-B
02:31AM 37.5183 -121.6980 233° Southwest 241 277 10,800 -1,200 Descending FlightAware ADS-B
02:31AM 37.5139 -121.7030 223° Southwest 242 278 10,700 -1,846 Descending FlightAware ADS-B
02:31AM 37.5084 -121.7078 215° Southwest 243 280 10,400 -1,500 Descending FlightAware ADS-B
02:31AM 37.4877 -121.7260 214° Southwest 245 282 10,000 -1,250 Descending FlightAware ADS-B
02:32AM 37.4849 -121.7279 214° Southwest 245 282 9,900 -1,846 Descending FlightAware ADS-B
02:32AM 37.4754 -121.7360 215° Southwest 245 282 9,600 -1,714 Descending FlightAware ADS-B
02:32AM 37.4713 -121.7410 220° Southwest 246 283 9,500 -1,500 Descending FlightAware ADS-B
02:32AM 37.4689 -121.7440 226° Southwest 245 282 9,400 -1,000 Descending FlightAware ADS-B
02:32AM 37.4674 -121.7465 233° Southwest 245 282 9,400 -1,500 Level FlightAware ADS-B
02:32AM 37.4666 -121.7480 233° Southwest 245 282 9,300 -2,400 Descending FlightAware ADS-B
02:32AM 37.4648 -121.7530 240° Southwest 244 281 9,200 -1,333 Descending FlightAware ADS-B
02:32AM 37.4637 -121.7600 258° West 241 277 9,100 -1,286 Descending FlightAware ADS-B
02:32AM 37.4645 -121.7728 283° West 238 274 8,900 -1,636 Descending FlightAware ADS-B
02:32AM 37.4650 -121.7750 281° West 238 274 8,800 -1,636 Descending FlightAware ADS-B
02:32AM 37.4686 -121.7860 291° West 238 274 8,600 -1,333 Descending FlightAware ADS-B
02:33AM 37.4721 -121.7972 291° West 238 274 8,400 -1,600 Descending FlightAware ADS-B
02:33AM 37.4745 -121.8060 294° West 238 274 8,200 -1,636 Descending FlightAware ADS-B
02:33AM 37.4764 -121.8130 288° West 237 273 8,100 -857 Descending FlightAware ADS-B
02:33AM 37.4795 -121.8252 288° West 237 273 8,000 -750 Descending FlightAware ADS-B
02:33AM 37.4841 -121.8450 286° West 235 270 7,800 -857 Descending FlightAware ADS-B
02:33AM 37.4856 -121.8516 286° West 235 270 7,700 -960 Descending FlightAware ADS-B
02:34AM 37.4902 -121.8780 286° West 235 270 7,400 -882 Descending FlightAware ADS-B
02:34AM 37.4917 -121.8980 273° West 236 272 7,200 -600 Descending FlightAware ADS-B
02:34AM 37.4918 -121.9024 272° West 237 273 7,200 -750 Level FlightAware ADS-B
02:34AM 37.4922 -121.9200 272° West 235 270 7,000 -857 Descending FlightAware ADS-B
02:34AM 37.4925 -121.9321 272° West 230 265 6,900 -500 Descending FlightAware ADS-B
02:34AM 37.4926 -121.9360 272° West 229 264 6,900 -632 Level FlightAware ADS-B
02:35AM 37.4932 -121.9567 271° West 216 249 6,700 -545 Descending FlightAware ADS-B
02:35AM 37.4933 -121.9640 272° West 218 251 6,700 -1,000 Level FlightAware ADS-B
02:35AM 37.4942 -121.9800 277° West 210 242 6,400 -1,200 Descending FlightAware ADS-B
02:35AM 37.4941 -121.9793 281° West 209 241 6,400 -1,200 Level FlightAware ADS-B
02:35AM 37.4952 -121.9860 282° West 208 239 6,300 -857 Descending FlightAware ADS-B
02:35AM 37.4963 -121.9910 285° West 206 237 6,300 -750 Level FlightAware ADS-B
02:35AM 37.4974 -121.9960 287° West 202 232 6,200 -923 Descending FlightAware ADS-B
02:35AM 37.5000 -122.0050 290° West 199 229 6,100 -1,125 Descending FlightAware ADS-B
02:35AM 37.5023 -122.0120 292° West 199 229 5,900 -1,429 Descending FlightAware ADS-B
02:36AM 37.5072 -122.0264 294° West 197 227 5,600 -1,200 Descending FlightAware ADS-B
02:36AM 37.5079 -122.0290 294° West 197 227 5,600 -1,091 Level FlightAware ADS-B
02:36AM 37.5111 -122.0380 291° West 192 221 5,400 -947 Descending FlightAware ADS-B
02:36AM 37.5132 -122.0451 292° West 189 217 5,300 -1,333 Descending FlightAware ADS-B
02:36AM 37.5173 -122.0570 293° West 188 216 5,000 -1,333 Descending FlightAware ADS-B
02:36AM 37.5199 -122.0649 294° West 186 214 4,900 -545 Descending FlightAware ADS-B
02:36AM 37.5210 -122.0680 294° West 185 213 4,900 -1,200 Level FlightAware ADS-B
02:36AM 37.5236 -122.0760 293° West 181 208 4,700 -1,263 Descending FlightAware ADS-B
02:37AM 37.5271 -122.0860 292° West 179 206 4,500 -1,000 Descending FlightAware ADS-B
02:37AM 37.5273 -122.0871 292° West 179 206 4,500 -1,200 Level FlightAware ADS-B
02:37AM 37.5318 -122.1010 292° West 181 208 4,200 -1,200 Descending FlightAware ADS-B
02:37AM 37.5336 -122.1069 292° West 178 205 4,100 -1,091 Descending FlightAware ADS-B
02:37AM 37.5353 -122.1120 292° West 175 201 4,000 -900 Descending FlightAware ADS-B
02:37AM 37.5394 -122.1250 292° West 166 191 3,800 -750 Descending FlightAware ADS-B
02:37AM 37.5400 -122.1270 292° West 165 190 3,800 -1,385 Level FlightAware ADS-B
02:37AM 37.5435 -122.1370 294° West 165 190 3,500 -1,333 Descending FlightAware ADS-B
02:38AM 37.5454 -122.1425 293° West 165 190 3,400 -923 Descending FlightAware ADS-B
02:38AM 37.5472 -122.1480 292° West 162 186 3,300 -1,000 Descending FlightAware ADS-B
02:38AM 37.5504 -122.1580 291° West 160 184 3,100 -857 Descending FlightAware ADS-B
02:38AM 37.5510 -122.1603 291° West 161 185 3,100 -800 Level FlightAware ADS-B
02:38AM 37.5544 -122.1710 291° West 161 185 2,900 -947 Descending FlightAware ADS-B
02:38AM 37.5550 -122.1734 291° West 161 185 2,800 -800 Descending FlightAware ADS-B
02:38AM 37.5583 -122.1840 292° West 160 184 2,700 -783 Descending FlightAware ADS-B
02:39AM 37.5624 -122.1970 292° West 158 182 2,500 -600 Descending FlightAware ADS-B
02:39AM 37.5666 -122.2090 293° West 158 182 2,400 -375 Descending FlightAware ADS-B
02:39AM 37.5619 -122.1952 293° West 158 182 2,400 -800 Level FlightAware ADS-B
02:39AM 37.5709 -122.2220 293° West 158 182 2,200 -818 Descending FlightAware ADS-B
02:39AM 37.5731 -122.2287 293° West 158 182 2,100 -750 Descending FlightAware ADS-B
02:39AM 37.5754 -122.2360 292° West 158 182 2,000 -857 Descending FlightAware ADS-B
02:39AM 37.5769 -122.2410 289° West 158 182 1,900 -1,000 Descending FlightAware ADS-B
02:40AM 37.5780 -122.2460 286° West 158 182 1,800 -545 Descending FlightAware ADS-B
02:40AM 37.5788 -122.2510 283° West 155 178 1,800 -545 Level FlightAware ADS-B
02:40AM 37.5799 -122.2570 282° West 152 175 1,700 -857 Descending FlightAware ADS-B
02:40AM 37.5811 -122.2630 283° West 152 175 1,600 -1,059 Descending FlightAware ADS-B
02:40AM 37.5826 -122.2710 285° West 151 174 1,400 -720 Descending FlightAware ADS-B
02:40AM 37.5856 -122.2840 287° West 148 170 1,300 -462 Descending FlightAware ADS-B
02:40AM 37.5877 -122.2920 289° West 150 173 1,200 -667 Descending FlightAware ADS-B
02:41AM 37.5897 -122.2990 291° West 151 174 1,100 -632 Descending FlightAware ADS-B
02:41AM 37.5930 -122.3080 295° West 151 174 1,000 -750 Descending FlightAware ADS-B
02:41AM 37.5995 -122.3240 298° West 151 174 700 -1,000 Descending FlightAware ADS-B
02:41AM 37.6026 -122.3310 298° West 150 173 500 -947 Descending FlightAware ADS-B
02:41AM 37.6059 -122.3390 297° West 148 170 400 -720 Descending FlightAware ADS-B
02:42AM 37.6107 -122.3500 298° West 147 169 200 -800 Descending FlightAware ADS-B

Login

Don't have an account? Register now (free) for customized features, flight alerts, and more!